Terminal Aerodrome Forecast
Issued by NWS Cleveland, OH

Home | Current Version | Previous Version | Graphics & Text | Print | Product List | Glossary On
Versions: 1 2 3 4 5 6 7 8 9 10 11 12 13 14 15 16 17 18 19 20
000
FTUS41 KCLE 311100
TAFERI
TAF
KERI 311140Z 3112/0112 21012KT P6SM SCT018 OVC040
     FM311400 21010KT P6SM VCSH SCT008 OVC018
     FM311800 21010KT 6SM -SHRA SCT018 OVC035
     FM312200 21010KT P6SM OVC035=

USA.gov is the U.S. government's official web portal to all federal, state and local government web resources and services.